Time;durP1;ratioP1;P1;durP2;ratioP2;P2;SDS_P1;SDS_P2;PMS_P1;PMS_P2;Temp;Humidity;BMP_temperature;BMP_pressure;BME280_temperature;BME280_humidity;BME280_pressure;Samples;Min_cycle;Max_cycle;Signal;HPM_P1;HPM_P2
2021/05/06 00:34:15;;;;;;;1.43;0.30;;;5.80;99.90;;;;;;4978017;28;20037;-83
2021/05/06 00:36:40;;;;;;;0.63;0.20;;;5.80;99.90;;;;;;4960322;28;20031;-83
2021/05/06 00:39:11;;;;;;;1.00;0.50;;;5.70;99.90;;;;;;4977805;28;20602;-83
2021/05/06 00:55:49;;;;;;;1.17;0.50;;;5.30;99.90;;;;;;4975710;28;20085;-83
2021/05/06 01:01:00;;;;;;;2.27;0.60;;;5.30;99.90;;;;;;4975803;28;20023;-83
2021/05/06 01:06:10;;;;;;;1.53;0.40;;;5.30;99.90;;;;;;4975194;28;20116;-83
2021/05/06 01:08:43;;;;;;;1.83;0.53;;;5.20;99.90;;;;;;4989406;28;20467;-83
2021/05/06 01:11:18;;;;;;;1.70;0.60;;;5.20;99.90;;;;;;4990152;28;20030;-83
2021/05/06 01:13:46;;;;;;;1.07;0.40;;;5.20;99.90;;;;;;5007343;28;20033;-83
2021/05/06 01:16:11;;;;;;;0.97;0.37;;;5.20;99.90;;;;;;4996301;28;20022;-83
2021/05/06 01:18:37;;;;;;;2.53;0.50;;;5.20;99.90;;;;;;4980394;28;20038;-83
2021/05/06 01:21:04;;;;;;;1.57;0.60;;;5.20;99.90;;;;;;4975759;28;20109;-83
2021/05/06 01:23:33;;;;;;;2.50;0.40;;;5.20;99.90;;;;;;4975272;28;20368;-83
2021/05/06 01:26:06;;;;;;;2.57;0.57;;;5.20;99.90;;;;;;4975972;28;20042;-83
2021/05/06 01:28:38;;;;;;;2.13;0.70;;;5.20;99.90;;;;;;4958253;28;20031;-83
2021/05/06 01:33:39;;;;;;;0.93;0.40;;;5.20;99.90;;;;;;4995561;28;20457;-83
2021/05/06 01:36:09;;;;;;;1.70;0.50;;;5.20;99.90;;;;;;4995090;28;20372;-83
2021/05/06 01:44:09;;;;;;;1.87;0.63;;;5.20;99.90;;;;;;4997118;28;20018;-83
2021/05/06 01:57:40;;;;;;;1.23;0.40;;;5.40;99.90;;;;;;4976315;28;20494;-82
2021/05/06 02:00:13;;;;;;;0.80;0.33;;;5.30;99.90;;;;;;4966455;28;20030;-83
2021/05/06 02:02:39;;;;;;;1.30;0.50;;;5.40;99.90;;;;;;4996568;28;20097;-84
2021/05/06 02:05:05;;;;;;;3.93;0.73;;;5.40;99.90;;;;;;4982375;28;20161;-83
2021/05/06 02:07:32;;;;;;;1.70;0.50;;;5.40;99.90;;;;;;5003313;28;20029;-83
2021/05/06 02:09:58;;;;;;;1.77;0.60;;;5.40;99.90;;;;;;4975029;28;20041;-83
2021/05/06 02:12:23;;;;;;;1.63;0.47;;;5.40;99.90;;;;;;4974830;28;20034;-83
2021/05/06 02:14:56;;;;;;;1.33;0.60;;;5.40;99.90;;;;;;5013565;28;20038;-83
2021/05/06 02:17:22;;;;;;;2.17;0.70;;;5.40;99.90;;;;;;5007217;28;20026;-83
2021/05/06 02:19:49;;;;;;;1.30;0.40;;;5.40;99.90;;;;;;4995036;28;20092;-83
2021/05/06 02:22:19;;;;;;;2.07;0.50;;;5.40;99.90;;;;;;4990503;28;20022;-83
2021/05/06 02:24:45;;;;;;;3.03;0.60;;;5.40;99.90;;;;;;5011697;28;20026;-83
2021/05/06 02:27:11;;;;;;;1.10;0.50;;;5.40;99.90;;;;;;4981717;28;20053;-83
2021/05/06 02:29:36;;;;;;;1.40;0.40;;;5.40;99.90;;;;;;4988181;28;20371;-83
2021/05/06 02:32:03;;;;;;;2.40;0.53;;;5.50;99.90;;;;;;4977108;28;20121;-83
2021/05/06 02:34:28;;;;;;;2.10;0.87;;;5.50;99.90;;;;;;5010206;28;20029;-83
2021/05/06 02:36:54;;;;;;;1.00;0.50;;;5.50;99.90;;;;;;4977858;28;20026;-83
2021/05/06 02:39:20;;;;;;;0.87;0.40;;;5.40;99.90;;;;;;4994933;28;20088;-82
2021/05/06 02:41:45;;;;;;;3.27;0.63;;;5.40;99.90;;;;;;4995010;28;20022;-83
2021/05/06 02:44:11;;;;;;;1.50;0.57;;;5.40;99.90;;;;;;4989796;28;20390;-83
2021/05/06 02:46:37;;;;;;;0.80;0.47;;;5.30;99.90;;;;;;4996308;28;20025;-84
2021/05/06 02:49:03;;;;;;;1.90;0.67;;;5.30;99.90;;;;;;4996389;28;20022;-83
2021/05/06 02:51:35;;;;;;;2.93;0.60;;;5.30;99.90;;;;;;4994402;28;20030;-83
2021/05/06 02:54:02;;;;;;;1.17;0.50;;;5.20;99.90;;;;;;4977022;28;20033;-83
2021/05/06 03:04:24;;;;;;;1.77;0.60;;;5.30;99.90;;;;;;4996490;28;20110;-83
2021/05/06 03:06:57;;;;;;;1.57;0.50;;;5.40;99.90;;;;;;4992385;28;20041;-83
2021/05/06 03:12:03;;;;;;;1.70;0.50;;;5.40;99.90;;;;;;5002569;28;20538;-83
2021/05/06 03:25:15;;;;;;;2.20;0.60;;;5.50;99.90;;;;;;5014991;28;20033;-83
2021/05/06 03:27:52;;;;;;;2.67;0.60;;;5.50;99.90;;;;;;4999119;28;20060;-84
2021/05/06 03:35:51;;;;;;;4.00;0.80;;;5.40;99.90;;;;;;4981320;28;20030;-84
2021/05/06 04:16:37;;;;;;;1.70;0.60;;;4.70;99.90;;;;;;4979754;28;20058;-83
2021/05/06 04:29:57;;;;;;;3.53;0.90;;;4.70;99.90;;;;;;5014873;28;20030;-84
2021/05/06 04:37:43;;;;;;;2.93;0.90;;;4.70;99.90;;;;;;4999122;28;20518;-84
2021/05/06 04:45:47;;;;;;;2.90;0.87;;;4.70;99.90;;;;;;5009104;28;20048;-83
2021/05/06 04:55:55;;;;;;;2.43;0.80;;;4.80;99.90;;;;;;4996274;28;20026;-84
2021/05/06 04:59:15;;;;;;;5.77;1.00;;;4.80;99.90;;;;;;4986105;28;20034;-84
2021/05/06 05:25:12;;;;;;;4.03;0.87;;;5.40;99.90;;;;;;5008255;28;20817;-83
2021/05/06 05:27:37;;;;;;;2.57;1.00;;;5.40;99.90;;;;;;4982212;28;20026;-84
2021/05/06 05:30:04;;;;;;;3.53;1.20;;;5.50;99.90;;;;;;4987853;28;20142;-84
2021/05/06 05:32:30;;;;;;;4.30;0.83;;;5.50;99.90;;;;;;4982481;28;20212;-83
2021/05/06 05:35:01;;;;;;;6.13;1.20;;;5.60;99.90;;;;;;4997487;28;20088;-83
2021/05/06 05:37:33;;;;;;;2.95;0.95;;;5.70;99.90;;;;;;4991101;28;20050;-83
2021/05/06 05:55:43;;;;;;;3.67;1.03;;;5.90;99.90;;;;;;4990801;28;20033;-84
2021/05/06 05:58:09;;;;;;;3.53;1.07;;;5.80;99.90;;;;;;4968926;28;20034;-85
2021/05/06 06:00:35;;;;;;;3.17;1.00;;;5.80;99.90;;;;;;4972496;28;20084;-85
2021/05/06 06:03:01;;;;;;;1.90;0.90;;;5.80;99.90;;;;;;4976231;28;20667;-85
2021/05/06 06:05:26;;;;;;;3.57;1.03;;;5.80;99.90;;;;;;4987506;28;20029;-85
2021/05/06 06:07:52;;;;;;;4.07;1.40;;;5.80;99.90;;;;;;4971345;28;20030;-84
2021/05/06 06:10:18;;;;;;;2.90;1.07;;;5.80;99.90;;;;;;4965946;28;20030;-84
2021/05/06 06:12:44;;;;;;;2.50;0.93;;;5.80;99.90;;;;;;4986354;28;20029;-84
2021/05/06 06:15:27;;;;;;;2.20;0.70;;;5.90;99.90;;;;;;4986154;28;20030;-84
2021/05/06 06:17:53;;;;;;;2.20;0.60;;;5.90;99.90;;;;;;4991054;28;20839;-85
2021/05/06 06:20:19;;;;;;;4.03;1.10;;;5.90;99.90;;;;;;4972725;28;20050;-85
2021/05/06 06:22:45;;;;;;;2.00;1.00;;;5.90;99.90;;;;;;4985984;28;20033;-85
2021/05/06 06:25:11;;;;;;;1.33;0.70;;;5.90;99.90;;;;;;4987785;28;20029;-85
2021/05/06 06:27:37;;;;;;;2.30;0.80;;;5.90;99.90;;;;;;4992244;28;20029;-84
2021/05/06 06:30:05;;;;;;;2.00;0.70;;;5.90;99.90;;;;;;4982205;28;20402;-85
2021/05/06 06:32:31;;;;;;;2.33;0.70;;;5.90;99.90;;;;;;4987602;28;20499;-84
2021/05/06 06:34:56;;;;;;;2.27;0.90;;;5.80;99.90;;;;;;4993786;28;20096;-83
2021/05/06 06:37:23;;;;;;;4.27;1.13;;;5.90;99.90;;;;;;4994686;28;20053;-85
2021/05/06 06:39:49;;;;;;;2.67;0.90;;;6.00;99.90;;;;;;4989996;28;20046;-85
2021/05/06 06:42:15;;;;;;;1.97;0.70;;;6.00;99.90;;;;;;4981707;28;20337;-85
2021/05/06 06:44:41;;;;;;;3.73;0.73;;;6.00;99.90;;;;;;4995269;28;20049;-85
2021/05/06 06:47:08;;;;;;;2.47;0.83;;;6.10;99.90;;;;;;4979686;28;20487;-84
2021/05/06 06:49:36;;;;;;;1.87;0.60;;;6.20;99.90;;;;;;4983797;28;20022;-85
2021/05/06 06:52:04;;;;;;;3.37;0.90;;;6.20;99.90;;;;;;4985221;28;20026;-84
2021/05/06 06:54:30;;;;;;;2.83;0.90;;;6.20;99.90;;;;;;4985021;28;20030;-84
2021/05/06 06:56:56;;;;;;;2.17;0.57;;;6.30;99.90;;;;;;4997817;28;20038;-88
2021/05/06 06:59:22;;;;;;;3.87;0.90;;;6.30;99.90;;;;;;4978617;28;20534;-89
2021/05/06 07:01:48;;;;;;;2.63;0.60;;;6.30;99.90;;;;;;4978785;28;20122;-89
2021/05/06 07:04:19;;;;;;;4.33;1.13;;;6.40;99.90;;;;;;4998367;28;20043;-89
2021/05/06 07:06:49;;;;;;;5.10;1.00;;;6.50;99.90;;;;;;4979554;28;20063;-88
2021/05/06 07:09:15;;;;;;;4.63;0.73;;;6.50;99.90;;;;;;4977867;28;20550;-88
2021/05/06 07:11:42;;;;;;;4.13;0.80;;;6.60;99.90;;;;;;4980810;28;20117;-89
2021/05/06 07:14:08;;;;;;;4.10;1.17;;;6.60;99.90;;;;;;4986730;28;20026;-89
2021/05/06 07:16:34;;;;;;;6.00;0.80;;;6.60;99.90;;;;;;4986530;28;20503;-89
2021/05/06 07:19:00;;;;;;;2.90;0.80;;;6.70;99.90;;;;;;4968988;28;20042;-88
2021/05/06 07:21:26;;;;;;;5.10;0.57;;;6.70;99.90;;;;;;4972311;28;20042;-85
2021/05/06 07:23:54;;;;;;;4.37;1.10;;;6.80;99.90;;;;;;4991037;28;20027;-86
2021/05/06 07:26:21;;;;;;;2.00;0.67;;;6.90;99.90;;;;;;4956517;28;20069;-85
2021/05/06 07:28:49;;;;;;;3.20;0.77;;;6.90;99.90;;;;;;4972242;28;20120;-88
2021/05/06 07:31:15;;;;;;;2.60;0.60;;;7.00;99.90;;;;;;4969598;28;20030;-90
2021/05/06 07:33:43;;;;;;;1.80;0.50;;;7.00;99.90;;;;;;4967649;28;20045;-89
2021/05/06 07:36:10;;;;;;;1.90;1.00;;;7.10;99.90;;;;;;5001162;28;20403;-89
2021/05/06 07:38:36;;;;;;;1.60;0.63;;;7.20;99.90;;;;;;4982161;28;20035;-88
2021/05/06 07:41:03;;;;;;;3.07;0.87;;;7.20;99.90;;;;;;4966156;28;20121;-89
2021/05/06 07:43:30;;;;;;;3.00;0.80;;;7.30;99.90;;;;;;4967099;28;20380;-89
2021/05/06 07:45:57;;;;;;;2.07;0.80;;;7.40;99.90;;;;;;4980594;28;20122;-89
2021/05/06 07:48:24;;;;;;;4.80;0.90;;;7.60;99.90;;;;;;4973381;28;20157;-88
2021/05/06 07:50:50;;;;;;;1.97;0.80;;;7.70;99.90;;;;;;4965380;28;20046;-89
2021/05/06 07:53:23;;;;;;;1.83;0.70;;;7.90;99.90;;;;;;4982903;28;20030;-89
2021/05/06 07:55:49;;;;;;;3.77;1.10;;;8.00;99.90;;;;;;4982582;28;20442;-89
2021/05/06 07:58:15;;;;;;;4.50;0.90;;;8.30;99.90;;;;;;4993674;28;20030;-89
2021/05/06 08:00:42;;;;;;;2.30;0.60;;;8.30;99.90;;;;;;4988127;28;20502;-89
2021/05/06 08:03:09;;;;;;;2.53;0.87;;;8.40;99.90;;;;;;4972542;28;20023;-89
2021/05/06 08:05:36;;;;;;;3.95;1.00;;;8.50;99.90;;;;;;4990678;28;20031;-88
2021/05/06 08:08:02;;;;;;;4.30;1.13;;;8.50;99.90;;;;;;4981662;28;20494;-88
2021/05/06 08:10:28;;;;;;;2.60;0.83;;;8.50;99.90;;;;;;4984681;28;20030;-88
2021/05/06 08:12:58;;;;;;;3.67;0.90;;;8.50;99.90;;;;;;4979292;28;20073;-88
2021/05/06 08:15:25;;;;;;;3.10;0.88;;;8.80;99.90;;;;;;4977808;28;20473;-88
2021/05/06 08:17:51;;;;;;;1.42;0.50;;;8.60;99.90;;;;;;4992826;28;20041;-88
2021/05/06 08:20:18;;;;;;;2.15;0.60;;;8.60;99.90;;;;;;4975323;28;20019;-88
2021/05/06 08:22:44;;;;;;;2.75;0.80;;;8.70;99.90;;;;;;4976388;28;20480;-89
2021/05/06 08:25:13;;;;;;;1.92;0.68;;;8.70;99.90;;;;;;4975472;28;20042;-88
2021/05/06 08:27:39;;;;;;;5.72;1.00;;;8.70;99.90;;;;;;4972590;28;20483;-88
2021/05/06 08:30:07;;;;;;;5.45;0.85;;;8.70;99.90;;;;;;4980135;28;20022;-87
2021/05/06 08:32:33;;;;;;;2.35;0.77;;;8.70;99.90;;;;;;4976366;28;20022;-88
2021/05/06 08:34:58;;;;;;;3.90;0.95;;;9.00;99.90;;;;;;4981466;28;20053;-88
2021/05/06 08:37:24;;;;;;;3.03;0.90;;;8.70;99.90;;;;;;4986654;28;20034;-88
2021/05/06 08:39:50;;;;;;;3.53;0.70;;;8.60;99.90;;;;;;4965837;28;20094;-88
2021/05/06 08:42:16;;;;;;;3.38;1.08;;;8.60;99.90;;;;;;4983791;28;20027;-88
2021/05/06 08:44:45;;;;;;;3.05;0.70;;;8.60;99.90;;;;;;4981355;28;20038;-88
2021/05/06 08:47:18;;;;;;;3.53;0.70;;;8.90;99.90;;;;;;4969723;28;20031;-89
2021/05/06 08:49:45;;;;;;;2.08;0.80;;;8.70;99.90;;;;;;4985636;28;20121;-90
2021/05/06 08:52:18;;;;;;;2.00;0.80;;;8.80;99.90;;;;;;4978071;28;20050;-86
2021/05/06 08:54:44;;;;;;;4.13;0.80;;;8.80;99.90;;;;;;4982883;28;20050;-88
2021/05/06 08:57:10;;;;;;;2.65;0.80;;;8.80;99.90;;;;;;4986932;28;20056;-87
2021/05/06 08:59:36;;;;;;;2.80;0.90;;;8.80;99.90;;;;;;4977116;28;20474;-89
2021/05/06 09:02:02;;;;;;;2.20;0.73;;;8.70;99.90;;;;;;4995561;28;20374;-88
2021/05/06 09:04:31;;;;;;;4.18;0.75;;;8.80;99.90;;;;;;4993109;28;20019;-87
2021/05/06 09:07:02;;;;;;;2.72;0.80;;;8.80;99.90;;;;;;4989905;28;20105;-88
2021/05/06 09:09:49;;;;;;;3.13;0.55;;;8.80;99.90;;;;;;4977585;28;20022;-88
2021/05/06 09:12:16;;;;;;;4.32;0.80;;;8.80;99.90;;;;;;4977794;28;20060;-88
2021/05/06 09:14:49;;;;;;;1.90;0.77;;;8.40;99.90;;;;;;4972812;28;20058;-88
2021/05/06 09:17:27;;;;;;;4.22;1.23;;;8.70;99.90;;;;;;4980084;28;20022;-88
2021/05/06 09:20:05;;;;;;;6.10;1.20;;;8.70;99.90;;;;;;4977929;28;20053;-89
2021/05/06 09:22:43;;;;;;;5.60;1.38;;;8.70;99.90;;;;;;4981961;28;20458;-88
2021/05/06 09:25:30;;;;;;;4.88;1.20;;;8.70;99.90;;;;;;4977769;28;20030;-89
2021/05/06 09:28:02;;;;;;;4.13;1.05;;;8.70;99.90;;;;;;5006662;28;20010;-88
2021/05/06 09:30:32;;;;;;;2.75;0.70;;;8.60;99.90;;;;;;4986068;28;20034;-88
2021/05/06 09:33:06;;;;;;;3.30;1.00;;;8.60;99.90;;;;;;4975745;28;20081;-89
2021/05/06 09:35:50;;;;;;;2.75;1.02;;;8.60;99.90;;;;;;5000273;28;20081;-89
2021/05/06 09:38:36;;;;;;;2.65;0.85;;;8.60;99.90;;;;;;4989076;28;20545;-88
2021/05/06 09:41:04;;;;;;;3.35;0.90;;;8.50;99.90;;;;;;4990795;28;20121;-88
2021/05/06 09:43:34;;;;;;;6.38;1.58;;;8.50;99.90;;;;;;4987644;28;20069;-88
2021/05/06 09:46:04;;;;;;;4.40;1.30;;;8.50;99.90;;;;;;4969513;28;20030;-88
2021/05/06 09:48:30;;;;;;;2.85;0.98;;;8.40;99.90;;;;;;4982230;28;20037;-89
2021/05/06 09:51:01;;;;;;;5.22;1.05;;;8.40;99.90;;;;;;4991867;28;20120;-89
2021/05/06 09:53:31;;;;;;;2.80;0.85;;;8.20;99.90;;;;;;4983560;28;20033;-88
2021/05/06 09:55:58;;;;;;;3.42;0.90;;;8.40;99.90;;;;;;4981440;28;20530;-90
2021/05/06 09:58:28;;;;;;;2.47;0.75;;;8.60;99.90;;;;;;4979531;28;20113;-89
2021/05/06 10:00:55;;;;;;;3.00;0.68;;;8.60;99.90;;;;;;4984870;28;20049;-88
2021/05/06 10:03:29;;;;;;;2.00;0.63;;;8.50;99.90;;;;;;5002291;28;20029;-89
2021/05/06 10:05:55;;;;;;;2.50;0.90;;;8.40;99.90;;;;;;5013516;28;20066;-89
2021/05/06 10:08:36;;;;;;;4.30;1.05;;;8.40;99.90;;;;;;4985028;28;20065;-89
2021/05/06 10:11:16;;;;;;;4.72;1.42;;;8.40;99.90;;;;;;4998508;28;20438;-88
2021/05/06 10:13:44;;;;;;;4.10;1.00;;;8.30;99.90;;;;;;4976972;28;20061;-89
2021/05/06 10:16:12;;;;;;;3.38;1.48;;;8.40;99.90;;;;;;4982470;28;20029;-88
2021/05/06 10:18:42;;;;;;;4.45;1.08;;;8.40;99.90;;;;;;4996143;28;20112;-89
2021/05/06 10:21:10;;;;;;;6.45;1.20;;;8.50;99.90;;;;;;4982257;28;20360;-88
2021/05/06 10:23:37;;;;;;;2.15;0.68;;;8.30;99.90;;;;;;4980359;28;20517;-89
2021/05/06 10:26:04;;;;;;;2.85;0.70;;;8.20;99.90;;;;;;4984622;28;20058;-88
2021/05/06 10:28:34;;;;;;;2.60;0.98;;;8.10;99.90;;;;;;4986401;28;20019;-89
2021/05/06 10:31:02;;;;;;;3.00;0.80;;;8.10;99.90;;;;;;4978117;28;20038;-88
2021/05/06 10:33:29;;;;;;;3.47;1.40;;;8.00;99.90;;;;;;4980192;28;20105;-88
2021/05/06 10:35:57;;;;;;;6.47;1.00;;;8.20;99.90;;;;;;4981868;28;20069;-88
2021/05/06 10:38:23;;;;;;;1.23;0.65;;;8.00;99.90;;;;;;4988530;28;20034;-88
2021/05/06 10:40:50;;;;;;;1.20;0.60;;;8.00;99.90;;;;;;4981842;28;20045;-89
2021/05/06 10:43:23;;;;;;;2.90;0.90;;;8.00;99.90;;;;;;4985708;28;20459;-88
2021/05/06 10:46:01;;;;;;;3.17;0.63;;;8.00;99.90;;;;;;4981889;28;20023;-89
2021/05/06 10:49:01;;;;;;;4.40;1.23;;;8.00;99.90;;;;;;4977890;28;20343;-88
2021/05/06 10:51:40;;;;;;;7.78;1.45;;;7.90;99.90;;;;;;4993445;28;20029;-89
2021/05/06 10:54:29;;;;;;;5.70;1.73;;;7.90;99.90;;;;;;4981246;28;20030;-88
2021/05/06 10:57:22;;;;;;;3.30;0.80;;;7.90;99.90;;;;;;4970930;28;20258;-88
2021/05/06 10:59:48;;;;;;;2.28;0.68;;;8.00;99.90;;;;;;4981920;28;20553;-88
2021/05/06 11:02:50;;;;;;;2.22;0.40;;;8.00;99.90;;;;;;4978151;28;20025;-89
2021/05/06 11:05:18;;;;;;;2.30;0.40;;;8.10;99.90;;;;;;4935566;29;20036;-90
2021/05/06 11:08:07;;;;;;;2.40;0.70;;;8.20;99.90;;;;;;4969599;28;20406;-89
2021/05/06 11:10:46;;;;;;;1.47;0.70;;;8.30;99.90;;;;;;4988872;28;20077;-89
2021/05/06 11:13:12;;;;;;;2.37;0.83;;;8.40;99.90;;;;;;4986994;28;20027;-89
2021/05/06 11:15:39;;;;;;;1.33;0.37;;;8.50;99.90;;;;;;4986315;28;20114;-89
2021/05/06 11:18:08;;;;;;;2.20;0.60;;;8.50;99.90;;;;;;4979950;28;20026;-89
2021/05/06 11:20:34;;;;;;;3.15;0.82;;;8.50;99.90;;;;;;4983630;28;20026;-89
2021/05/06 11:23:01;;;;;;;2.42;0.45;;;8.60;99.90;;;;;;4968448;28;20030;-89
2021/05/06 11:25:30;;;;;;;0.63;0.30;;;8.50;99.90;;;;;;4970319;28;20023;-89
2021/05/06 11:27:58;;;;;;;1.48;0.50;;;8.70;99.90;;;;;;4977424;28;20045;-88
2021/05/06 11:30:42;;;;;;;1.85;0.55;;;8.80;99.90;;;;;;4978808;28;20390;-88
2021/05/06 11:33:17;;;;;;;0.63;0.30;;;8.70;99.90;;;;;;4981019;28;20057;-88
2021/05/06 11:36:17;;;;;;;1.33;0.25;;;8.70;99.90;;;;;;4984032;28;20084;-88
2021/05/06 11:38:52;;;;;;;1.38;0.38;;;8.70;99.90;;;;;;4975514;28;20039;-87
2021/05/06 11:41:27;;;;;;;1.23;0.40;;;8.70;99.90;;;;;;4976492;28;20041;-87
2021/05/06 11:43:58;;;;;;;0.93;0.30;;;8.80;99.90;;;;;;4973675;28;20030;-88
2021/05/06 11:46:38;;;;;;;0.47;0.30;;;8.80;99.90;;;;;;4986160;28;20065;-88
2021/05/06 11:49:06;;;;;;;0.60;0.37;;;8.70;99.90;;;;;;4974144;28;20023;-86
2021/05/06 11:51:33;;;;;;;1.47;0.40;;;8.70;99.90;;;;;;4981447;28;20030;-87
2021/05/06 11:54:12;;;;;;;0.22;0.10;;;8.70;99.90;;;;;;4980439;28;20045;-87
2021/05/06 11:56:42;;;;;;;0.97;0.20;;;8.70;99.90;;;;;;4996017;28;20030;-85
2021/05/06 11:59:18;;;;;;;1.33;0.22;;;8.70;99.90;;;;;;4975545;28;20070;-86
2021/05/06 12:01:46;;;;;;;0.52;0.30;;;8.70;99.90;;;;;;4982142;28;20463;-87
2021/05/06 12:04:33;;;;;;;0.82;0.30;;;8.70;99.90;;;;;;4981543;28;20403;-88
2021/05/06 12:07:19;;;;;;;2.22;0.20;;;8.80;99.90;;;;;;4975315;28;20034;-88
2021/05/06 12:09:45;;;;;;;0.55;0.20;;;8.70;99.90;;;;;;4980482;28;20514;-88
2021/05/06 12:12:23;;;;;;;0.50;0.30;;;9.00;99.90;;;;;;4991318;28;20094;-88
2021/05/06 12:14:49;;;;;;;1.20;0.50;;;8.80;99.90;;;;;;4991118;28;20062;-88
2021/05/06 12:17:18;;;;;;;0.90;0.45;;;8.90;99.90;;;;;;4977949;28;20030;-88
2021/05/06 12:19:48;;;;;;;0.85;0.20;;;8.90;99.90;;;;;;4982163;28;20472;-88
2021/05/06 12:22:16;;;;;;;0.95;0.30;;;8.90;99.90;;;;;;4996080;28;20542;-88
2021/05/06 12:24:48;;;;;;;1.42;0.40;;;8.90;99.90;;;;;;4998148;28;20030;-88
2021/05/06 12:27:22;;;;;;;1.25;0.30;;;8.80;99.90;;;;;;4978344;28;20023;-86
2021/05/06 12:30:11;;;;;;;0.95;0.30;;;8.90;99.90;;;;;;4977236;28;20128;-87
2021/05/06 12:32:46;;;;;;;1.13;0.38;;;9.00;99.90;;;;;;4983022;28;20036;-88
2021/05/06 12:35:12;;;;;;;1.48;0.20;;;8.90;99.90;;;;;;4980496;28;20030;-88
2021/05/06 12:37:38;;;;;;;0.88;0.40;;;9.00;99.90;;;;;;4984813;28;20026;-89
2021/05/06 12:40:11;;;;;;;1.27;0.40;;;9.00;99.90;;;;;;4998020;28;20038;-88
2021/05/06 12:42:38;;;;;;;2.35;0.40;;;8.80;99.90;;;;;;4983862;28;20037;-89
2021/05/06 12:45:05;;;;;;;1.90;0.38;;;8.70;99.90;;;;;;4987141;28;20026;-89
2021/05/06 12:47:34;;;;;;;0.75;0.30;;;8.70;99.90;;;;;;4980942;28;20038;-86
2021/05/06 12:50:14;;;;;;;1.05;0.40;;;8.60;99.90;;;;;;4997041;28;20033;-89
2021/05/06 12:52:43;;;;;;;1.10;0.30;;;8.70;99.90;;;;;;4976227;28;20092;-90
2021/05/06 12:55:29;;;;;;;0.77;0.30;;;8.70;99.90;;;;;;4990724;28;20081;-90
2021/05/06 12:58:19;;;;;;;1.05;0.40;;;8.60;99.90;;;;;;4995616;28;20038;-90
2021/05/06 13:00:54;;;;;;;0.90;0.40;;;8.50;99.90;;;;;;4995790;28;20045;-90
2021/05/06 13:03:34;;;;;;;0.57;0.25;;;8.50;99.90;;;;;;4982207;28;20109;-89
2021/05/06 13:06:17;;;;;;;1.97;0.60;;;8.50;99.90;;;;;;4995362;28;20486;-90
2021/05/06 13:08:47;;;;;;;2.13;0.50;;;8.60;99.90;;;;;;4987354;28;20053;-90
2021/05/06 13:11:19;;;;;;;1.55;0.70;;;8.60;99.90;;;;;;4978511;28;20035;-89
2021/05/06 13:13:46;;;;;;;1.70;0.60;;;8.60;99.90;;;;;;4981816;28;20121;-88
2021/05/06 13:16:16;;;;;;;4.28;0.70;;;8.80;99.90;;;;;;4990892;28;20045;-89
2021/05/06 13:19:01;;;;;;;2.55;0.43;;;9.00;99.90;;;;;;4986894;28;20026;-88
2021/05/06 13:21:26;;;;;;;1.25;0.60;;;8.60;99.90;;;;;;4984599;28;20050;-89
2021/05/06 13:23:54;;;;;;;1.48;0.65;;;8.70;99.90;;;;;;4984454;28;20513;-89
2021/05/06 13:26:34;;;;;;;1.17;0.50;;;8.70;99.90;;;;;;4983393;28;20117;-89
2021/05/06 13:29:03;;;;;;;1.17;0.35;;;8.60;99.90;;;;;;4989687;28;20034;-88
2021/05/06 13:31:37;;;;;;;1.35;0.60;;;8.60;99.90;;;;;;4975129;28;20159;-89
2021/05/06 13:34:29;;;;;;;2.42;0.70;;;8.40;99.90;;;;;;4972558;28;20027;-89
2021/05/06 13:37:00;;;;;;;1.60;0.60;;;8.40;99.90;;;;;;4968624;28;20038;-89
2021/05/06 13:39:27;;;;;;;2.70;0.77;;;8.40;99.90;;;;;;4985651;28;20129;-89
2021/05/06 13:41:53;;;;;;;3.53;0.80;;;8.40;99.90;;;;;;4986928;28;20030;-90
2021/05/06 13:44:24;;;;;;;2.58;0.90;;;8.40;99.90;;;;;;4989146;28;20093;-89
2021/05/06 13:46:54;;;;;;;1.77;0.70;;;8.60;99.90;;;;;;4985471;28;20022;-90
2021/05/06 13:49:21;;;;;;;3.50;1.27;;;8.40;99.90;;;;;;4985284;28;20412;-90
2021/05/06 13:51:48;;;;;;;3.15;1.05;;;8.40;99.90;;;;;;4984114;28;20041;-91
2021/05/06 13:54:15;;;;;;;1.30;0.68;;;8.30;99.90;;;;;;4985225;28;20041;-89
2021/05/06 13:56:41;;;;;;;2.22;0.90;;;8.30;99.90;;;;;;4966131;28;20034;-88
2021/05/06 13:59:07;;;;;;;2.78;0.93;;;8.40;99.90;;;;;;4972866;28;20027;-88
2021/05/06 14:01:32;;;;;;;2.78;0.90;;;8.40;99.90;;;;;;4966282;28;20632;-88
2021/05/06 14:03:58;;;;;;;3.05;0.90;;;8.30;99.90;;;;;;4965528;28;20027;-88
2021/05/06 14:06:25;;;;;;;2.72;0.70;;;8.40;99.90;;;;;;4970293;28;20054;-88
2021/05/06 14:08:50;;;;;;;2.38;0.90;;;8.20;99.90;;;;;;4969087;28;20193;-88
2021/05/06 14:11:16;;;;;;;1.60;0.68;;;8.30;99.90;;;;;;4973837;28;20499;-88
2021/05/06 14:13:42;;;;;;;1.88;0.70;;;8.50;99.90;;;;;;4966839;28;20030;-88
2021/05/06 14:16:08;;;;;;;1.17;0.33;;;8.20;99.90;;;;;;4990694;28;20030;-88
2021/05/06 14:18:34;;;;;;;1.40;0.50;;;8.20;99.90;;;;;;4978033;28;20132;-88
2021/05/06 14:21:02;;;;;;;1.27;0.30;;;8.10;99.90;;;;;;4972179;28;20034;-88
2021/05/06 14:23:36;;;;;;;2.40;0.40;;;8.40;99.90;;;;;;4970872;28;20045;-89
2021/05/06 14:26:02;;;;;;;0.67;0.30;;;8.10;99.90;;;;;;4977214;28;20093;-87
2021/05/06 14:28:27;;;;;;;0.70;0.37;;;8.10;99.90;;;;;;4972778;28;20018;-88
2021/05/06 14:30:53;;;;;;;0.97;0.20;;;8.00;99.90;;;;;;4974466;28;20304;-88
2021/05/06 14:33:19;;;;;;;0.47;0.20;;;8.00;99.90;;;;;;4998063;28;20038;-87
2021/05/06 14:35:44;;;;;;;0.40;0.20;;;7.90;99.90;;;;;;4986651;28;20447;-88
2021/05/06 14:38:10;;;;;;;0.43;0.20;;;7.90;99.90;;;;;;4970435;28;20499;-88
2021/05/06 14:40:38;;;;;;;0.33;0.20;;;7.90;99.90;;;;;;4985891;28;20454;-87
2021/05/06 14:43:04;;;;;;;0.50;0.20;;;7.90;99.90;;;;;;4968820;28;20454;-88
2021/05/06 14:45:30;;;;;;;0.67;0.33;;;7.90;99.90;;;;;;4962443;28;20033;-88
2021/05/06 14:47:56;;;;;;;2.13;0.40;;;8.00;99.90;;;;;;4986452;28;20071;-89
2021/05/06 14:50:31;;;;;;;1.60;0.40;;;8.00;99.90;;;;;;4977702;28;20032;-89
2021/05/06 14:53:30;;;;;;;2.50;0.33;;;8.00;99.90;;;;;;4990433;28;20030;-90
2021/05/06 14:59:22;;;;;;;1.83;0.30;;;8.20;99.90;;;;;;4967024;28;20038;-88
2021/05/06 15:01:48;;;;;;;0.73;0.40;;;8.30;99.90;;;;;;4977822;23;20076;-86
2021/05/06 15:04:17;;;;;;;0.75;0.30;;;8.60;99.90;;;;;;4973794;28;20484;-86
2021/05/06 15:06:45;;;;;;;0.83;0.30;;;8.40;99.90;;;;;;4978583;28;20026;-86
2021/05/06 15:09:11;;;;;;;1.67;0.33;;;8.40;99.90;;;;;;4973064;28;20073;-86
2021/05/06 15:11:37;;;;;;;1.05;0.38;;;8.50;99.90;;;;;;4953258;28;20039;-86
2021/05/06 15:14:04;;;;;;;1.97;0.30;;;8.40;99.90;;;;;;4954313;28;20118;-86
2021/05/06 15:16:29;;;;;;;1.27;0.52;;;8.50;99.90;;;;;;4962190;28;20090;-87
2021/05/06 15:18:55;;;;;;;0.93;0.30;;;8.60;99.90;;;;;;4941158;29;20027;-86
2021/05/06 15:21:21;;;;;;;1.10;0.30;;;8.60;99.90;;;;;;4943320;28;20039;-86
2021/05/06 15:23:49;;;;;;;1.33;0.38;;;8.70;99.90;;;;;;4953031;28;20416;-86
2021/05/06 15:26:15;;;;;;;0.85;0.25;;;8.70;99.90;;;;;;4950713;29;20110;-84
2021/05/06 15:28:44;;;;;;;0.32;0.22;;;8.80;99.90;;;;;;4950214;29;20110;-86
2021/05/06 15:31:09;;;;;;;1.20;0.25;;;8.80;99.90;;;;;;4942117;28;20484;-86
2021/05/06 15:33:36;;;;;;;0.73;0.30;;;8.80;99.90;;;;;;4942455;28;20035;-85
2021/05/06 15:36:02;;;;;;;0.63;0.20;;;8.80;99.90;;;;;;4944964;29;20023;-86
2021/05/06 15:38:28;;;;;;;1.58;0.40;;;8.80;99.90;;;;;;4940679;29;20064;-87
2021/05/06 15:40:54;;;;;;;0.85;0.20;;;8.70;99.90;;;;;;4938390;29;20360;-85
2021/05/06 15:43:21;;;;;;;1.08;0.30;;;8.60;99.90;;;;;;4957540;28;20112;-86
2021/05/06 15:45:46;;;;;;;4.15;1.05;;;8.70;99.90;;;;;;4943888;28;20365;-87
2021/05/06 15:48:14;;;;;;;1.63;0.50;;;8.60;99.90;;;;;;4945906;29;20118;-86
2021/05/06 15:50:41;;;;;;;1.40;0.60;;;8.60;99.90;;;;;;4940286;29;20032;-86
2021/05/06 15:53:07;;;;;;;3.10;0.50;;;8.60;99.90;;;;;;4944114;28;20397;-86
2021/05/06 15:55:34;;;;;;;1.52;0.60;;;8.60;99.90;;;;;;4958869;28;20019;-85
2021/05/06 15:58:03;;;;;;;1.07;0.30;;;8.50;99.90;;;;;;4940063;29;20042;-87
2021/05/06 16:00:31;;;;;;;1.05;0.32;;;8.50;99.90;;;;;;4940129;29;20027;-87
2021/05/06 16:03:08;;;;;;;1.33;0.30;;;8.50;99.90;;;;;;4958707;28;20114;-87
2021/05/06 16:05:38;;;;;;;1.23;0.40;;;8.40;99.90;;;;;;4934794;28;20027;-86
2021/05/06 16:08:06;;;;;;;1.37;0.40;;;8.40;99.90;;;;;;4955568;28;20027;-87
2021/05/06 16:10:33;;;;;;;0.90;0.33;;;8.40;99.90;;;;;;4956425;28;20615;-86
2021/05/06 16:12:59;;;;;;;1.02;0.35;;;8.40;99.90;;;;;;4943626;28;20046;-87
2021/05/06 16:15:28;;;;;;;0.53;0.30;;;8.50;99.90;;;;;;4948895;29;20031;-86
2021/05/06 16:17:53;;;;;;;0.77;0.20;;;8.50;99.90;;;;;;4935258;29;20074;-85
2021/05/06 16:20:22;;;;;;;0.60;0.25;;;8.50;99.90;;;;;;4940146;29;20027;-86
2021/05/06 16:22:48;;;;;;;1.13;0.40;;;8.50;99.90;;;;;;4933285;29;20035;-86
2021/05/06 16:25:16;;;;;;;1.17;0.50;;;8.60;99.90;;;;;;4934749;29;20023;-86
2021/05/06 16:27:42;;;;;;;1.83;0.50;;;8.60;99.90;;;;;;4956191;28;20713;-86
2021/05/06 16:30:09;;;;;;;1.33;0.40;;;8.60;99.90;;;;;;4958216;28;20062;-86
2021/05/06 16:32:36;;;;;;;1.93;0.60;;;8.70;99.90;;;;;;4938220;29;20031;-86
2021/05/06 16:35:05;;;;;;;1.48;0.22;;;8.80;99.90;;;;;;4956197;28;20030;-87
2021/05/06 16:37:36;;;;;;;1.30;0.50;;;9.00;99.90;;;;;;4939127;29;20019;-86
2021/05/06 16:40:55;;;;;;;1.35;0.50;;;9.00;99.90;;;;;;4935921;28;20034;-87